Time;durP1;ratioP1;P1;durP2;ratioP2;P2;SDS_P1;SDS_P2;PMS_P1;PMS_P2;Temp;Humidity;BMP_temperature;BMP_pressure;BME280_temperature;BME280_humidity;BME280_pressure;Samples;Min_cycle;Max_cycle;Signal;HPM_P1;HPM_P2
2023/05/31 00:00:54;;;;;;;6.77;5.60;;;;;;;15.76;87.25;97098.50;4968614;28;20211;-74
2023/05/31 00:03:21;;;;;;;7.57;5.53;;;;;;;15.60;88.17;97095.19;4968207;28;20299;-71
2023/05/31 00:05:49;;;;;;;8.63;5.70;;;;;;;15.67;87.78;97096.47;4968378;28;20193;-70
2023/05/31 00:08:16;;;;;;;7.10;5.50;;;;;;;15.63;88.05;97091.53;4968681;28;20204;-73
2023/05/31 00:10:43;;;;;;;9.20;5.77;;;;;;;15.70;87.89;97098.91;4968092;28;20636;-69
2023/05/31 00:13:10;;;;;;;10.93;5.87;;;;;;;15.68;86.91;97100.78;4966567;28;20248;-69
2023/05/31 00:15:37;;;;;;;13.57;6.20;;;;;;;15.51;87.40;97093.19;4966786;28;20192;-68
2023/05/31 00:18:04;;;;;;;5.80;5.00;;;;;;;15.31;88.41;97088.38;4968127;28;20195;-69
2023/05/31 00:20:31;;;;;;;9.27;5.87;;;;;;;15.33;88.96;97078.69;4968170;28;20283;-69
2023/05/31 00:22:58;;;;;;;10.60;5.57;;;;;;;15.46;88.36;97085.66;4968086;28;20231;-69
2023/05/31 00:25:25;;;;;;;7.93;5.73;;;;;;;15.38;88.72;97087.88;4967863;28;20203;-68
2023/05/31 00:27:55;;;;;;;8.43;5.70;;;;;;;15.44;88.84;97086.66;4967827;28;20201;-69
2023/05/31 00:30:22;;;;;;;12.63;5.90;;;;;;;15.59;87.57;97090.91;4967911;28;20203;-69
2023/05/31 00:32:49;;;;;;;8.70;5.90;;;;;;;15.59;87.73;97098.75;4967950;28;20304;-69
2023/05/31 00:35:16;;;;;;;10.53;5.57;;;;;;;15.59;87.06;97084.84;4972229;28;20213;-68
2023/05/31 00:37:43;;;;;;;6.40;5.70;;;;;;;15.75;87.11;97098.56;4970645;28;20200;-68
2023/05/31 00:40:10;;;;;;;9.33;6.00;;;;;;;15.78;86.70;97094.00;4971725;28;20209;-68
2023/05/31 00:42:37;;;;;;;7.07;5.97;;;;;;;15.49;87.65;97092.44;4970237;28;20224;-69
2023/05/31 00:45:06;;;;;;;8.07;6.53;;;;;;;15.40;88.37;97095.59;4971598;28;20223;-69
2023/05/31 00:47:35;;;;;;;11.53;6.70;;;;;;;15.33;88.79;97096.94;4971321;28;20200;-69
2023/05/31 00:50:02;;;;;;;8.57;5.87;;;;;;;15.18;89.54;97092.69;4971435;28;20200;-68
2023/05/31 00:52:32;;;;;;;7.60;6.63;;;;;;;15.20;90.62;97093.44;4971314;28;20196;-68
2023/05/31 00:55:00;;;;;;;9.20;6.90;;;;;;;15.28;90.70;97088.56;4971591;28;20231;-69
2023/05/31 00:57:30;;;;;;;12.33;7.27;;;;;;;15.33;90.78;97091.72;4971192;28;21503;-69
2023/05/31 00:59:57;;;;;;;11.33;6.87;;;;;;;15.37;90.57;97086.19;4971490;28;20211;-69
2023/05/31 01:02:25;;;;;;;9.57;5.80;;;;;;;15.40;90.70;97085.16;4971461;28;20208;-69
2023/05/31 01:04:52;;;;;;;9.10;6.07;;;;;;;15.55;89.84;97084.22;4971324;28;20263;-70
2023/05/31 01:07:19;;;;;;;9.97;5.60;;;;;;;15.64;88.83;97091.44;4971024;28;20345;-69
2023/05/31 01:09:48;;;;;;;9.20;5.70;;;;;;;15.75;87.87;97091.59;4971180;28;20220;-70
2023/05/31 01:12:26;;;;;;;9.37;5.90;;;;;;;15.59;87.81;97093.53;4971169;28;20197;-69
2023/05/31 01:15:11;;;;;;;8.83;5.83;;;;;;;15.51;88.09;97087.13;4971143;28;20232;-69
2023/05/31 01:18:10;;;;;;;9.87;7.13;;;;;;;15.12;90.85;97088.69;4969503;28;20267;-71
2023/05/31 01:20:46;;;;;;;9.80;6.47;;;;;;;15.04;92.07;97096.19;4969420;28;20279;-69
2023/05/31 01:23:22;;;;;;;10.97;7.03;;;;;;;15.16;91.88;97097.16;4970835;28;20719;-69
2023/05/31 01:26:12;;;;;;;8.97;7.27;;;;;;;15.02;92.18;97091.97;4970835;28;20255;-68
2023/05/31 01:28:41;;;;;;;12.40;7.10;;;;;;;14.52;94.29;97061.22;4970592;28;20224;-69
2023/05/31 01:31:11;;;;;;;13.17;7.10;;;;;;;14.62;95.44;97099.66;4970539;28;20202;-69
2023/05/31 01:33:39;;;;;;;12.13;7.90;;;;;;;14.49;96.98;97090.88;4969062;28;20228;-69
2023/05/31 01:36:06;;;;;;;14.70;9.63;;;;;;;14.57;96.77;97099.06;4970705;28;20229;-70
2023/05/31 01:38:33;;;;;;;17.20;9.43;;;;;;;14.38;98.75;97095.09;4969321;28;20273;-69
2023/05/31 01:41:06;;;;;;;16.87;9.03;;;;;;;14.26;100.00;97104.41;4970488;28;20201;-70
2023/05/31 01:43:36;;;;;;;15.50;9.10;;;;;;;14.33;100.00;97092.75;4968865;28;20213;-68
2023/05/31 01:46:05;;;;;;;15.40;9.83;;;;;;;14.27;100.00;97094.84;4970424;28;20208;-69
2023/05/31 01:48:32;;;;;;;14.47;9.83;;;;;;;14.38;100.00;97090.72;4970309;28;20197;-69
2023/05/31 01:51:00;;;;;;;12.40;9.70;;;;;;;14.37;100.00;97085.56;4970223;28;20239;-69
2023/05/31 01:53:28;;;;;;;22.43;10.80;;;;;;;14.42;100.00;97096.56;4970341;28;20238;-69
2023/05/31 01:55:56;;;;;;;13.97;9.60;;;;;;;14.37;100.00;97099.44;4970195;28;20279;-69
2023/05/31 01:58:25;;;;;;;11.30;9.10;;;;;;;14.28;100.00;97097.38;4968995;28;20235;-69
2023/05/31 02:00:52;;;;;;;17.67;10.70;;;;;;;14.33;100.00;97089.28;4952849;28;20686;-69
2023/05/31 02:03:20;;;;;;;14.00;9.30;;;;;;;14.42;99.57;97083.53;4968841;28;20206;-69
2023/05/31 02:06:00;;;;;;;15.70;9.27;;;;;;;14.43;99.00;97086.03;4952865;28;20708;-69
2023/05/31 02:08:27;;;;;;;12.23;8.87;;;;;;;14.51;98.89;97089.03;4970079;28;20203;-69
2023/05/31 02:10:54;;;;;;;16.63;11.00;;;;;;;14.48;98.77;97093.59;4970448;28;20560;-70
2023/05/31 02:13:27;;;;;;;13.43;11.10;;;;;;;14.46;98.72;97093.69;4968860;28;20202;-69
2023/05/31 02:15:55;;;;;;;13.23;9.70;;;;;;;14.46;98.88;97096.31;4970117;28;20226;-69
2023/05/31 02:18:26;;;;;;;14.00;10.80;;;;;;;14.51;98.44;97093.41;4968701;28;20227;-69
2023/05/31 02:20:54;;;;;;;15.73;10.47;;;;;;;14.52;98.80;97090.72;4968586;28;20219;-69
2023/05/31 02:23:23;;;;;;;14.27;9.87;;;;;;;14.73;98.24;97098.16;4936495;28;20211;-71
2023/05/31 02:25:50;;;;;;;13.70;9.93;;;;;;;14.88;96.99;97092.00;4970044;28;20754;-75
2023/05/31 02:28:17;;;;;;;12.97;9.53;;;;;;;15.05;95.61;97089.16;4969928;28;20200;-69
2023/05/31 02:30:58;;;;;;;14.60;9.50;;;;;;;15.05;94.42;97099.59;4968553;28;20218;-70
2023/05/31 02:33:27;;;;;;;13.90;10.40;;;;;;;14.99;94.67;97099.97;4969456;28;20213;-71
2023/05/31 02:35:56;;;;;;;11.50;8.60;;;;;;;14.98;94.56;97098.31;4968459;28;20197;-69
2023/05/31 02:38:25;;;;;;;14.37;9.20;;;;;;;14.99;94.29;97103.44;4969629;28;20254;-69
2023/05/31 02:40:52;;;;;;;12.67;9.30;;;;;;;15.16;93.45;97108.44;4969682;28;20207;-70
2023/05/31 02:43:19;;;;;;;15.03;10.47;;;;;;;15.20;93.52;97103.88;4968274;28;20583;-69
2023/05/31 02:45:46;;;;;;;12.97;9.70;;;;;;;15.33;92.40;97112.59;4969543;28;20205;-71
2023/05/31 02:48:14;;;;;;;17.00;9.40;;;;;;;15.27;91.93;97113.00;4968182;28;20672;-69
2023/05/31 02:50:41;;;;;;;12.60;9.17;;;;;;;15.42;91.82;97112.88;4971060;28;20200;-72
2023/05/31 02:53:21;;;;;;;11.83;9.10;;;;;;;15.46;91.45;97110.91;4971230;28;20226;-69
2023/05/31 02:55:54;;;;;;;19.03;10.17;;;;;;;15.52;90.51;97123.56;4970190;28;20215;-69
2023/05/31 02:58:21;;;;;;;13.03;8.53;;;;;;;15.61;89.79;97116.91;4988643;28;20207;-69
2023/05/31 03:01:14;;;;;;;10.50;8.47;;;;;;;15.70;88.99;97125.00;4966829;28;20297;-69
2023/05/31 03:04:01;;;;;;;10.33;8.50;;;;;;;15.67;88.72;97124.34;4954673;28;20211;-69
2023/05/31 03:06:33;;;;;;;11.37;8.60;;;;;;;15.72;88.33;97128.34;4970888;28;20208;-70
2023/05/31 03:09:03;;;;;;;13.90;8.60;;;;;;;15.72;88.09;97123.13;4970819;28;20232;-72
2023/05/31 03:11:32;;;;;;;9.97;7.97;;;;;;;15.78;87.40;97130.56;4971072;28;20271;-69
2023/05/31 03:13:59;;;;;;;11.70;7.90;;;;;;;15.86;86.90;97133.50;4970771;28;20548;-69
2023/05/31 03:16:41;;;;;;;9.93;7.47;;;;;;;15.70;86.33;97125.00;4970590;28;20212;-69
2023/05/31 03:19:12;;;;;;;15.40;7.37;;;;;;;15.85;85.42;97142.28;4979790;28;20210;-70
2023/05/31 03:21:41;;;;;;;8.83;7.57;;;;;;;15.87;85.14;97136.94;4989803;28;20403;-70
2023/05/31 03:24:08;;;;;;;11.70;7.40;;;;;;;15.64;85.70;97135.81;4989927;28;20200;-69
2023/05/31 03:26:36;;;;;;;8.00;6.90;;;;;;;15.31;87.69;97137.97;4990061;28;20199;-69
2023/05/31 03:29:03;;;;;;;13.77;7.73;;;;;;;15.33;88.41;97141.31;5004657;28;20257;-69
2023/05/31 03:31:33;;;;;;;14.27;8.43;;;;;;;15.16;89.82;97133.69;4975824;28;20202;-69
2023/05/31 03:34:01;;;;;;;8.23;7.07;;;;;;;15.18;90.71;97137.03;4987497;28;20270;-69
2023/05/31 03:36:28;;;;;;;9.83;7.67;;;;;;;15.13;90.47;97129.50;4981954;28;20206;-69
2023/05/31 03:38:58;;;;;;;10.90;7.30;;;;;;;15.28;90.10;97138.13;4967559;28;20707;-70
2023/05/31 03:41:25;;;;;;;13.27;7.30;;;;;;;15.52;89.32;97141.81;4987568;28;20262;-70
2023/05/31 03:43:52;;;;;;;12.97;7.37;;;;;;;15.84;87.85;97145.00;4970197;28;20302;-69
2023/05/31 03:46:20;;;;;;;13.17;7.77;;;;;;;15.82;87.32;97146.88;4987708;28;20199;-69
2023/05/31 03:48:48;;;;;;;13.23;8.53;;;;;;;16.35;85.52;97148.56;4973986;28;20199;-71
2023/05/31 03:51:17;;;;;;;12.00;7.53;;;;;;;16.85;82.94;97144.22;4989438;28;20833;-70
2023/05/31 03:53:44;;;;;;;11.60;6.80;;;;;;;17.31;80.74;97151.47;5007012;28;20232;-71
2023/05/31 03:56:12;;;;;;;9.70;6.20;;;;;;;17.63;79.50;97161.38;5006729;28;20257;-69
2023/05/31 03:58:41;;;;;;;8.47;5.67;;;;;;;17.93;77.36;97155.66;4989220;28;20213;-69
2023/05/31 04:01:10;;;;;;;8.43;5.40;;;;;;;17.97;77.05;97153.69;4987993;28;20243;-69
2023/05/31 04:03:37;;;;;;;11.43;5.60;;;;;;;18.12;76.94;97160.41;4969896;28;20205;-70
2023/05/31 04:06:07;;;;;;;7.60;5.43;;;;;;;18.00;76.75;97162.16;4969060;28;20214;-69
2023/05/31 04:08:35;;;;;;;10.23;5.90;;;;;;;17.72;77.94;97155.44;4968716;28;20197;-69
2023/05/31 04:11:02;;;;;;;8.50;6.83;;;;;;;17.26;79.64;97164.88;4976385;28;20207;-68
2023/05/31 04:13:30;;;;;;;11.97;6.80;;;;;;;16.55;82.97;97163.78;4976104;28;20216;-69
2023/05/31 04:15:57;;;;;;;6.73;5.43;;;;;;;16.71;83.23;97159.19;4969403;28;20239;-68
2023/05/31 04:18:24;;;;;;;12.77;6.30;;;;;;;17.06;82.21;97170.69;4988926;28;20197;-69
2023/05/31 04:20:51;;;;;;;10.27;6.37;;;;;;;17.20;81.93;97167.94;5006786;28;20198;-69
2023/05/31 04:23:18;;;;;;;8.10;6.20;;;;;;;17.21;81.28;97166.97;5006307;28;20301;-69
2023/05/31 04:25:47;;;;;;;10.50;5.17;;;;;;;17.38;80.83;97166.63;4988526;28;20208;-69
2023/05/31 04:28:15;;;;;;;8.77;4.90;;;;;;;17.73;80.43;97172.84;4973058;28;20268;-69
2023/05/31 04:30:44;;;;;;;6.90;5.17;;;;;;;18.27;78.24;97175.84;4988904;28;20219;-69
2023/05/31 04:33:12;;;;;;;6.13;5.53;;;;;;;18.20;76.87;97179.00;4988801;28;20221;-69
2023/05/31 04:35:40;;;;;;;6.10;5.23;;;;;;;17.94;78.22;97177.47;4988647;28;20634;-68
2023/05/31 04:38:08;;;;;;;9.27;5.40;;;;;;;17.74;79.38;97181.56;4988875;28;20197;-69
2023/05/31 04:40:35;;;;;;;7.27;5.30;;;;;;;17.99;78.43;97185.84;4988806;28;20209;-71
2023/05/31 04:43:03;;;;;;;6.23;4.57;;;;;;;17.85;78.51;97179.81;4988984;28;20224;-69
2023/05/31 04:45:33;;;;;;;9.30;5.87;;;;;;;17.91;79.68;97182.97;4988565;28;20204;-69
2023/05/31 04:48:02;;;;;;;8.27;5.40;;;;;;;18.02;78.95;97177.75;4988589;28;20279;-69
2023/05/31 04:50:30;;;;;;;8.77;6.27;;;;;;;18.07;79.17;97179.09;4988625;28;20204;-69
2023/05/31 04:52:58;;;;;;;7.43;5.90;;;;;;;18.18;78.50;97178.28;4988584;28;20204;-69
2023/05/31 04:55:26;;;;;;;8.33;5.90;;;;;;;18.30;78.80;97185.28;4988605;28;20221;-69
2023/05/31 04:57:57;;;;;;;7.57;5.77;;;;;;;18.21;79.38;97180.69;4984877;28;20682;-70
2023/05/31 05:00:24;;;;;;;10.00;6.60;;;;;;;19.02;77.10;97190.22;4986651;28;20209;-69
2023/05/31 05:03:03;;;;;;;9.83;6.47;;;;;;;19.35;74.73;97200.75;4985432;28;20597;-69
2023/05/31 05:05:33;;;;;;;8.23;5.20;;;;;;;19.69;73.85;97200.75;4985495;28;20198;-69
2023/05/31 05:08:02;;;;;;;8.10;5.63;;;;;;;19.76;72.64;97200.16;4985336;28;20282;-69
2023/05/31 05:10:29;;;;;;;8.07;6.20;;;;;;;19.39;73.79;97206.63;4985122;28;20293;-72
2023/05/31 05:12:56;;;;;;;7.77;6.13;;;;;;;19.05;76.01;97204.91;4985305;28;20762;-74
2023/05/31 05:15:24;;;;;;;9.33;5.90;;;;;;;19.30;75.38;97212.56;4968885;28;21298;-69
2023/05/31 05:17:51;;;;;;;6.87;6.10;;;;;;;19.30;74.72;97205.53;4985299;28;20262;-69
2023/05/31 05:20:19;;;;;;;7.27;6.47;;;;;;;19.20;75.68;97208.97;4987691;28;20236;-69
2023/05/31 05:22:51;;;;;;;9.27;6.13;;;;;;;19.19;75.87;97202.03;4988434;28;20206;-69
2023/05/31 05:25:23;;;;;;;7.50;5.97;;;;;;;19.18;75.46;97205.63;4988628;28;20195;-70
2023/05/31 05:27:53;;;;;;;11.00;6.13;;;;;;;19.01;76.46;97220.06;4972196;28;20270;-69
2023/05/31 05:30:20;;;;;;;8.97;6.33;;;;;;;18.82;77.83;97219.78;4988754;28;20652;-70
2023/05/31 05:32:49;;;;;;;7.13;6.40;;;;;;;18.99;77.35;97211.47;4972106;28;20206;-70
2023/05/31 05:35:16;;;;;;;7.97;6.47;;;;;;;19.38;75.73;97208.41;4988365;28;20288;-68
2023/05/31 05:37:43;;;;;;;8.97;6.40;;;;;;;19.14;75.94;97212.94;4983965;28;20281;-69
2023/05/31 05:40:12;;;;;;;9.17;5.80;;;;;;;19.22;76.87;97225.44;4967610;28;20730;-70
2023/05/31 05:42:40;;;;;;;6.27;5.63;;;;;;;19.35;75.25;97219.16;4968909;28;20222;-70
2023/05/31 05:45:09;;;;;;;7.10;5.80;;;;;;;19.19;75.05;97189.75;4968972;28;20815;-73
2023/05/31 05:47:37;;;;;;;7.50;5.60;;;;;;;19.57;74.78;97220.09;4952766;28;20302;-73
2023/05/31 05:50:05;;;;;;;7.87;5.30;;;;;;;19.67;74.82;97218.41;4968946;28;20234;-70
2023/05/31 05:52:33;;;;;;;6.67;5.47;;;;;;;19.50;74.10;97232.88;4968857;28;20200;-78
2023/05/31 05:55:03;;;;;;;8.73;5.73;;;;;;;19.50;74.09;97182.97;4969754;28;20940;-71
2023/05/31 05:57:31;;;;;;;6.20;4.67;;;;;;;20.01;72.05;97222.69;4968254;28;20239;-70
2023/05/31 06:00:15;;;;;;;10.10;5.40;;;;;;;20.17;71.66;97226.53;4968342;28;20199;-71
2023/05/31 06:02:45;;;;;;;7.37;5.10;;;;;;;20.43;68.21;97227.09;4968309;28;20713;-70
2023/05/31 06:05:13;;;;;;;10.63;4.50;;;;;;;20.73;67.26;97231.63;4968392;28;20715;-70
2023/05/31 06:07:40;;;;;;;6.23;5.00;;;;;;;20.61;68.84;97228.19;4968120;28;20231;-70
2023/05/31 06:10:10;;;;;;;5.57;4.47;;;;;;;20.42;68.45;97222.81;4968076;28;20216;-73
2023/05/31 06:12:37;;;;;;;7.17;5.00;;;;;;;20.82;66.92;97234.31;4967734;28;20231;-70
2023/05/31 06:15:06;;;;;;;9.17;5.47;;;;;;;20.81;67.22;97230.00;4951916;28;20697;-71
2023/05/31 06:17:33;;;;;;;7.10;5.30;;;;;;;20.94;67.89;97225.38;4968053;28;20632;-74
2023/05/31 06:20:05;;;;;;;8.83;5.00;;;;;;;21.39;67.52;97227.75;4968179;28;20876;-73
2023/05/31 06:22:32;;;;;;;9.53;6.17;;;;;;;21.84;66.67;97226.44;4969505;28;20228;-71
2023/05/31 06:24:59;;;;;;;10.57;5.70;;;;;;;22.13;65.73;97235.25;4969362;28;20201;-70
2023/05/31 06:27:26;;;;;;;9.00;5.43;;;;;;;22.56;63.38;97233.06;4969224;28;20193;-69
2023/05/31 06:29:58;;;;;;;6.93;5.47;;;;;;;22.55;63.80;97231.38;4967555;28;20201;-72
2023/05/31 06:32:40;;;;;;;10.03;5.03;;;;;;;22.71;63.21;97233.47;4966993;28;20208;-71
2023/05/31 06:35:08;;;;;;;7.57;4.57;;;;;;;22.54;62.41;97227.09;4967787;28;20240;-73
2023/05/31 06:37:35;;;;;;;8.33;5.73;;;;;;;22.58;63.17;97223.22;4967870;28;20221;-70
2023/05/31 06:40:04;;;;;;;6.37;4.90;;;;;;;22.46;62.68;97231.38;4951610;28;20203;-71
2023/05/31 06:42:32;;;;;;;6.37;5.00;;;;;;;22.16;63.34;97229.69;4967475;28;20670;-70
2023/05/31 06:44:59;;;;;;;6.83;4.83;;;;;;;22.03;63.29;97215.91;4951575;28;20210;-69
2023/05/31 06:47:46;;;;;;;8.77;5.03;;;;;;;21.87;64.21;97194.50;4967406;28;20197;-70
2023/05/31 06:50:19;;;;;;;9.47;5.30;;;;;;;22.40;63.22;97221.38;4967547;28;20302;-70
2023/05/31 06:53:13;;;;;;;11.80;6.13;;;;;;;23.11;61.03;97225.34;4967038;28;20203;-77
2023/05/31 06:55:46;;;;;;;8.83;5.57;;;;;;;23.25;60.57;97222.25;4966504;28;20296;-72
2023/05/31 06:58:18;;;;;;;7.73;4.90;;;;;;;23.50;59.28;97221.66;4966922;28;20363;-74
2023/05/31 07:00:47;;;;;;;7.63;6.43;;;;;;;23.59;59.18;97217.31;4966796;28;20600;-73
2023/05/31 07:03:14;;;;;;;13.00;6.23;;;;;;;23.97;58.10;97214.44;4967252;28;20200;-70
2023/05/31 07:05:43;;;;;;;11.63;5.30;;;;;;;24.38;56.87;97229.81;4967243;28;20205;-70
2023/05/31 07:08:14;;;;;;;9.47;5.73;;;;;;;24.48;56.15;97224.47;4967090;28;20202;-72
2023/05/31 07:11:00;;;;;;;8.20;5.20;;;;;;;24.76;54.25;97213.66;4968479;28;20200;-74
2023/05/31 07:13:28;;;;;;;8.07;5.07;;;;;;;24.84;53.68;97220.81;4966799;28;20846;-77
2023/05/31 07:15:55;;;;;;;14.60;5.90;;;;;;;24.75;54.17;97222.56;4967075;28;20241;-76
2023/05/31 07:18:22;;;;;;;6.87;4.43;;;;;;;24.48;54.53;97229.75;4966873;28;20284;-76
2023/05/31 07:20:56;;;;;;;7.67;5.03;;;;;;;24.29;54.73;97212.19;4966725;28;20242;-76
2023/05/31 07:23:26;;;;;;;7.17;5.17;;;;;;;24.11;55.50;97221.94;4968078;28;20190;-76
2023/05/31 07:25:53;;;;;;;12.00;5.13;;;;;;;24.16;56.03;97225.78;4966347;28;20288;-74
2023/05/31 07:28:31;;;;;;;8.20;5.03;;;;;;;24.13;55.41;97220.78;4967799;28;20712;-71
2023/05/31 07:31:00;;;;;;;12.37;5.60;;;;;;;24.57;54.98;97232.31;4967834;28;20189;-75
2023/05/31 07:33:28;;;;;;;10.40;4.83;;;;;;;24.81;53.61;97229.91;4967598;28;20751;-76
2023/05/31 07:36:02;;;;;;;10.17;5.07;;;;;;;24.86;54.14;97210.91;4966113;28;20229;-73
2023/05/31 07:38:30;;;;;;;10.97;6.20;;;;;;;24.88;54.71;97207.13;4967234;28;20206;-75
2023/05/31 07:40:57;;;;;;;7.87;5.03;;;;;;;25.00;53.82;97210.34;4967662;28;20202;-71
2023/05/31 07:43:34;;;;;;;8.13;5.43;;;;;;;25.29;53.88;97215.31;4951320;28;20689;-73
2023/05/31 07:46:02;;;;;;;8.60;5.30;;;;;;;25.22;52.48;97219.59;4966242;28;20702;-75
2023/05/31 07:48:33;;;;;;;7.43;5.60;;;;;;;24.98;54.26;97214.97;4967509;28;20657;-72
2023/05/31 07:51:01;;;;;;;8.13;6.00;;;;;;;25.04;54.97;97217.81;4967589;28;20768;-72
2023/05/31 07:53:28;;;;;;;9.53;5.90;;;;;;;25.00;54.58;97218.28;4967565;28;20194;-72
2023/05/31 07:55:55;;;;;;;8.60;5.50;;;;;;;25.27;53.35;97218.13;4968463;28;20733;-71
2023/05/31 07:58:22;;;;;;;8.50;5.97;;;;;;;25.44;52.93;97217.28;4987060;28;20210;-74
2023/05/31 08:00:52;;;;;;;8.63;5.10;;;;;;;25.58;51.72;97213.19;4986958;28;20216;-72
2023/05/31 08:03:19;;;;;;;10.27;6.37;;;;;;;25.75;48.32;97213.13;4986757;28;20202;-76
2023/05/31 08:05:48;;;;;;;11.27;5.87;;;;;;;25.92;49.18;97224.66;4986951;28;20582;-73
2023/05/31 08:08:16;;;;;;;8.87;6.17;;;;;;;25.83;49.56;97221.13;4985335;28;20313;-71
2023/05/31 08:10:43;;;;;;;11.13;6.63;;;;;;;25.74;47.97;97222.06;4986752;28;20278;-73
2023/05/31 08:13:10;;;;;;;7.87;5.57;;;;;;;25.74;49.14;97218.56;4986560;28;20217;-72
2023/05/31 08:15:37;;;;;;;17.30;6.80;;;;;;;25.90;50.44;97221.31;4986387;28;20708;-72
2023/05/31 08:18:04;;;;;;;8.30;6.07;;;;;;;26.11;47.95;97221.72;4986468;28;20207;-72
2023/05/31 08:20:32;;;;;;;8.73;6.30;;;;;;;26.13;48.71;97229.56;4986172;28;20196;-74
2023/05/31 08:22:59;;;;;;;14.43;9.70;;;;;;;26.17;48.67;97218.41;4986286;28;20200;-72
2023/05/31 08:25:26;;;;;;;8.03;5.67;;;;;;;26.08;49.07;97215.91;4986266;28;20281;-71
2023/05/31 08:27:53;;;;;;;9.97;5.10;;;;;;;26.09;46.85;97225.56;4986378;28;20306;-74
2023/05/31 08:30:20;;;;;;;7.73;5.37;;;;;;;25.19;49.92;97220.75;4986093;28;20231;-75
2023/05/31 08:32:47;;;;;;;5.63;5.10;;;;;;;25.26;45.46;97211.19;4986496;28;20217;-72
2023/05/31 08:35:14;;;;;;;8.13;5.00;;;;;;;25.29;45.11;97218.81;4986206;28;20632;-71
2023/05/31 08:37:42;;;;;;;7.87;5.33;;;;;;;24.86;48.89;97208.25;4986235;28;20227;-71
2023/05/31 08:40:10;;;;;;;10.40;6.80;;;;;;;25.44;49.26;97208.50;4986748;28;20200;-71
2023/05/31 08:42:47;;;;;;;9.60;5.43;;;;;;;25.78;50.78;97207.50;4986197;28;20211;-73
2023/05/31 08:45:15;;;;;;;7.10;5.10;;;;;;;25.88;50.04;97201.22;4984938;28;20205;-70
2023/05/31 08:47:56;;;;;;;9.97;5.47;;;;;;;26.20;47.82;97217.28;4992690;28;20203;-70
2023/05/31 08:50:26;;;;;;;9.67;6.67;;;;;;;25.71;42.66;97208.28;4986422;28;20211;-72
2023/05/31 08:52:54;;;;;;;8.93;6.07;;;;;;;25.58;45.45;97186.69;4985744;28;20235;-70
2023/05/31 08:55:24;;;;;;;8.87;5.23;;;;;;;25.65;46.96;97207.13;4955069;28;20199;-74
2023/05/31 08:57:52;;;;;;;12.37;5.60;;;;;;;25.70;46.55;97204.81;4989381;28;20235;-71
2023/05/31 09:00:20;;;;;;;9.67;5.60;;;;;;;26.03;46.42;97199.63;4989646;28;20235;-71
2023/05/31 09:02:51;;;;;;;12.60;5.57;;;;;;;25.80;46.36;97188.78;4989526;28;20222;-71
2023/05/31 09:05:18;;;;;;;8.67;6.10;;;;;;;24.80;47.14;97182.38;4972075;28;20647;-73
2023/05/31 09:07:47;;;;;;;10.43;6.53;;;;;;;24.97;47.40;97192.09;5004464;28;20266;-74
2023/05/31 09:10:15;;;;;;;9.27;5.43;;;;;;;24.89;45.21;97192.06;4989206;28;20962;-70
2023/05/31 09:12:43;;;;;;;8.10;5.40;;;;;;;24.43;43.91;97192.28;4989858;28;20202;-70
2023/05/31 09:15:16;;;;;;;9.27;5.30;;;;;;;24.40;43.17;97189.97;4989399;28;20891;-70
2023/05/31 09:17:44;;;;;;;9.00;5.20;;;;;;;24.28;43.89;97193.81;4989493;28;20914;-70
2023/05/31 09:20:12;;;;;;;7.97;5.50;;;;;;;23.94;47.51;97202.38;5004363;28;20245;-70
2023/05/31 09:22:39;;;;;;;8.40;5.90;;;;;;;23.84;48.75;97198.94;4971831;28;20244;-75
2023/05/31 09:25:07;;;;;;;8.93;5.90;;;;;;;23.92;48.56;97190.25;4989614;28;20197;-71
2023/05/31 09:27:38;;;;;;;9.23;6.07;;;;;;;24.28;50.20;97185.88;4989219;28;20205;-73
2023/05/31 09:30:08;;;;;;;8.10;5.93;;;;;;;24.19;52.50;97177.03;4989328;28;20202;-70
2023/05/31 09:32:35;;;;;;;9.97;6.73;;;;;;;23.77;54.12;97179.34;4971526;28;20656;-73
2023/05/31 09:35:14;;;;;;;10.40;6.10;;;;;;;23.63;54.57;97185.13;4989616;28;20479;-77
2023/05/31 09:37:45;;;;;;;11.47;7.17;;;;;;;23.36;56.46;97183.31;4989598;28;20239;-70
2023/05/31 09:40:24;;;;;;;10.47;5.97;;;;;;;23.31;56.09;97177.59;4971478;28;21178;-71
2023/05/31 09:43:31;;;;;;;9.87;6.50;;;;;;;23.66;54.62;97170.78;4971659;28;20291;-73
2023/05/31 09:46:52;;;;;;;8.07;5.17;;;;;;;23.73;53.80;97164.75;4988743;28;20205;-78
2023/05/31 09:50:13;;;;;;;7.47;5.40;;;;;;;24.34;51.68;97169.38;4970829;28;20208;-73
2023/05/31 09:53:37;;;;;;;9.30;5.37;;;;;;;24.28;50.58;97165.50;4970596;28;20235;-72
2023/05/31 09:56:57;;;;;;;7.93;5.00;;;;;;;24.09;50.07;97155.91;4971084;28;20332;-74
2023/05/31 10:00:19;;;;;;;6.60;5.17;;;;;;;23.91;50.26;97151.53;4988052;28;20201;-69
2023/05/31 10:03:40;;;;;;;15.30;5.93;;;;;;;24.24;49.73;97159.69;4988059;28;20693;-71
2023/05/31 10:07:00;;;;;;;7.33;4.73;;;;;;;24.40;49.74;97152.91;4987244;28;20199;-73
2023/05/31 10:09:41;;;;;;;10.77;6.67;;;;;;;24.81;48.70;97153.06;4986862;28;20255;-72
2023/05/31 10:12:09;;;;;;;9.30;5.93;;;;;;;25.17;47.26;97155.59;4971266;28;20194;-70
2023/05/31 10:14:44;;;;;;;10.33;5.80;;;;;;;25.25;47.61;97159.13;4970959;28;20205;-75
2023/05/31 10:17:17;;;;;;;7.97;5.20;;;;;;;25.42;47.91;97146.81;4988785;28;20229;-75
2023/05/31 10:19:53;;;;;;;10.30;6.30;;;;;;;25.63;47.55;97153.38;4988635;28;20227;-70
2023/05/31 10:22:21;;;;;;;11.63;7.77;;;;;;;25.75;47.00;97157.41;4988478;28;20249;-72
2023/05/31 10:24:57;;;;;;;13.20;5.70;;;;;;;25.94;46.49;97147.50;4988343;28;20207;-72
2023/05/31 10:27:42;;;;;;;7.80;5.73;;;;;;;25.97;46.81;97149.81;4988512;28;20600;-69
2023/05/31 10:30:14;;;;;;;10.87;6.07;;;;;;;25.99;46.97;97150.50;4970821;28;20254;-74
2023/05/31 10:32:45;;;;;;;7.07;5.00;;;;;;;26.22;45.86;97151.56;4988254;28;20209;-73
2023/05/31 10:35:13;;;;;;;5.63;4.83;;;;;;;25.87;46.13;97147.31;4988313;28;20207;-72
2023/05/31 10:37:44;;;;;;;11.60;7.87;;;;;;;25.73;46.75;97148.78;4987960;28;20273;-72
2023/05/31 10:40:20;;;;;;;6.13;4.87;;;;;;;25.81;46.69;97143.50;4970678;28;20211;-69
2023/05/31 10:42:47;;;;;;;8.53;5.20;;;;;;;26.24;46.54;97141.59;4988536;28;20210;-71
2023/05/31 10:45:18;;;;;;;10.83;5.87;;;;;;;26.52;46.72;97132.34;4986434;28;20330;-74
2023/05/31 10:47:51;;;;;;;11.13;6.43;;;;;;;26.77;46.42;97130.53;4987996;28;20283;-69
2023/05/31 10:50:22;;;;;;;10.37;5.23;;;;;;;26.20;47.04;97116.38;4987789;28;20323;-74
2023/05/31 10:52:50;;;;;;;8.00;5.87;;;;;;;25.66;50.48;97123.03;4988249;28;20206;-69
2023/05/31 10:55:20;;;;;;;7.73;5.57;;;;;;;24.94;54.72;97126.16;4988014;28;20294;-73
2023/05/31 10:57:56;;;;;;;6.63;5.50;;;;;;;25.00;55.76;97102.50;4987698;28;20292;-77
2023/05/31 11:00:23;;;;;;;8.83;6.23;;;;;;;25.25;54.32;97103.47;4987981;28;20654;-70
2023/05/31 11:02:55;;;;;;;10.43;5.90;;;;;;;25.34;53.42;97107.81;4986671;28;20212;-72
2023/05/31 11:05:27;;;;;;;8.43;6.67;;;;;;;25.46;52.77;97097.78;4986985;28;20215;-73
2023/05/31 11:07:57;;;;;;;5.80;5.20;;;;;;;25.58;50.71;97104.44;4987456;28;20207;-67
2023/05/31 11:10:29;;;;;;;8.97;5.60;;;;;;;25.38;52.02;97097.72;4970146;28;20214;-71
2023/05/31 11:13:02;;;;;;;7.10;4.97;;;;;;;25.50;51.84;97102.59;4970163;28;20299;-72
2023/05/31 11:15:41;;;;;;;14.57;6.00;;;;;;;25.41;52.10;97097.44;4969563;28;20231;-70
2023/05/31 11:18:09;;;;;;;8.33;5.57;;;;;;;25.37;51.70;97091.56;4986706;28;20297;-69
2023/05/31 11:20:37;;;;;;;7.37;5.70;;;;;;;25.49;53.19;97100.94;4987211;28;20199;-70
2023/05/31 11:23:23;;;;;;;8.50;5.47;;;;;;;25.52;53.75;97105.94;4970136;28;20203;-70
2023/05/31 11:26:14;;;;;;;7.00;5.60;;;;;;;25.29;55.17;97088.06;4987323;28;20199;-69
2023/05/31 11:28:57;;;;;;;9.77;6.43;;;;;;;25.41;57.37;97103.56;4987289;28;20299;-70
2023/05/31 11:31:57;;;;;;;10.80;6.33;;;;;;;25.05;57.99;97110.00;4969913;28;20209;-71
2023/05/31 11:34:30;;;;;;;13.80;7.00;;;;;;;24.44;60.32;97102.09;4987481;28;20636;-71
2023/05/31 11:37:04;;;;;;;7.50;5.30;;;;;;;24.21;54.44;97112.34;4970016;28;20232;-69
2023/05/31 11:39:31;;;;;;;9.33;5.70;;;;;;;23.97;55.59;97109.44;4970207;28;20200;-68
2023/05/31 11:41:58;;;;;;;9.67;6.03;;;;;;;23.72;55.30;97107.53;4970091;28;20626;-71
2023/05/31 11:44:28;;;;;;;9.27;5.73;;;;;;;23.27;56.18;97085.50;4970216;28;20225;-69
2023/05/31 11:47:01;;;;;;;9.23;5.73;;;;;;;23.08;57.48;97041.53;4969761;28;20206;-72
2023/05/31 11:49:30;;;;;;;6.50;4.47;;;;;;;23.42;53.71;97086.72;4987260;28;20663;-70